createdAt,value
2023-05-10T00:00:00.857Z,100510
2023-05-10T00:05:00.858Z,100500
2023-05-10T00:10:00.762Z,100530
2023-05-10T00:15:00.848Z,100490
2023-05-10T00:20:00.651Z,100490
2023-05-10T00:25:00.829Z,100510
2023-05-10T00:30:00.866Z,100510
2023-05-10T00:35:00.632Z,100490
2023-05-10T00:40:00.728Z,100500
2023-05-10T00:45:00.889Z,100500
2023-05-10T00:50:01.083Z,100500
2023-05-10T00:55:00.884Z,100510
2023-05-10T01:00:00.551Z,100480
2023-05-10T01:05:00.817Z,100490
2023-05-10T01:10:01.945Z,100490
2023-05-10T01:15:00.803Z,100490
2023-05-10T01:20:00.879Z,100480
2023-05-10T01:25:01.294Z,100480
2023-05-10T01:30:09.526Z,100510
2023-05-10T01:35:00.857Z,100480
2023-05-10T01:40:00.880Z,100500
2023-05-10T01:45:01.379Z,100500
2023-05-10T01:50:00.920Z,100500
2023-05-10T01:55:01.447Z,100500
2023-05-10T02:00:01.069Z,100500
2023-05-10T02:05:01.200Z,100490
2023-05-10T02:10:01.398Z,100510
2023-05-10T02:15:01.119Z,100490
2023-05-10T02:20:00.923Z,100500
2023-05-10T02:25:00.748Z,100500
2023-05-10T02:30:01.968Z,100490
2023-05-10T02:35:00.941Z,100510
2023-05-10T02:40:00.916Z,100500
2023-05-10T02:45:02.526Z,100520
2023-05-10T02:50:01.723Z,100530
2023-05-10T02:55:00.852Z,100500
2023-05-10T03:00:00.500Z,100500
2023-05-10T03:05:01.220Z,100550
2023-05-10T03:10:01.288Z,100530
2023-05-10T03:15:01.320Z,100510
2023-05-10T03:20:00.734Z,100520
2023-05-10T03:25:02.420Z,100530
2023-05-10T03:30:00.810Z,100510
2023-05-10T03:35:00.920Z,100540
2023-05-10T03:40:02.044Z,100510
2023-05-10T03:45:00.858Z,100520
2023-05-10T03:50:01.178Z,100530
2023-05-10T03:55:01.239Z,100560
2023-05-10T04:00:00.841Z,100540
2023-05-10T04:05:01.112Z,100540
2023-05-10T04:10:00.930Z,100560
2023-05-10T04:15:00.824Z,100550
2023-05-10T04:20:00.806Z,100570
2023-05-10T04:25:00.665Z,100540
2023-05-10T04:30:01.537Z,100560
2023-05-10T04:35:00.792Z,100550
2023-05-10T04:40:00.665Z,100550
2023-05-10T04:45:00.692Z,100550
2023-05-10T04:50:00.842Z,100560
2023-05-10T04:55:00.965Z,100560
2023-05-10T05:00:00.964Z,100570
2023-05-10T05:05:02.049Z,100590
2023-05-10T05:10:01.304Z,100600
2023-05-10T05:15:01.119Z,100570
2023-05-10T05:20:00.554Z,100610
2023-05-10T05:25:00.605Z,100590
2023-05-10T05:30:02.123Z,100600
2023-05-10T05:35:00.680Z,100610
2023-05-10T05:40:00.675Z,100610
2023-05-10T05:45:00.467Z,100620
2023-05-10T05:50:01.911Z,100610
2023-05-10T05:55:01.060Z,100600
2023-05-10T06:00:00.789Z,100630
2023-05-10T06:05:00.795Z,100630
2023-05-10T06:10:00.764Z,100610
2023-05-10T06:15:00.900Z,100620
2023-05-10T06:20:00.961Z,100630
2023-05-10T06:25:00.836Z,100620
2023-05-10T06:30:11.905Z,100640
2023-05-10T06:35:00.785Z,100630
2023-05-10T06:40:00.786Z,100650
2023-05-10T06:45:00.886Z,100660
2023-05-10T06:50:00.723Z,100650
2023-05-10T06:55:00.480Z,100670
2023-05-10T07:00:01.037Z,100680
2023-05-10T07:05:03.250Z,100670
2023-05-10T07:10:00.897Z,100640
2023-05-10T07:15:00.867Z,100700
2023-05-10T07:20:02.153Z,100690
2023-05-10T07:25:01.067Z,100710
2023-05-10T07:30:00.949Z,100690
2023-05-10T07:35:00.912Z,100690
2023-05-10T07:40:00.992Z,100700
2023-05-10T07:45:00.793Z,100720
2023-05-10T07:50:01.509Z,100690
2023-05-10T07:55:00.656Z,100700
2023-05-10T08:00:00.767Z,100710
2023-05-10T08:05:00.861Z,100710
2023-05-10T08:10:00.930Z,100720
2023-05-10T08:15:00.578Z,100730
2023-05-10T08:20:01.023Z,100730
2023-05-10T08:25:00.832Z,100730
2023-05-10T08:30:00.722Z,100740
2023-05-10T08:35:01.792Z,100740
2023-05-10T08:40:00.876Z,100710
2023-05-10T08:45:01.312Z,100740
2023-05-10T08:50:01.177Z,100730
2023-05-10T08:55:00.752Z,100760
2023-05-10T09:00:01.016Z,100770
2023-05-10T09:05:01.278Z,100770
2023-05-10T09:10:01.109Z,100790
2023-05-10T09:15:01.123Z,100770
2023-05-10T09:20:00.686Z,100780
2023-05-10T09:25:00.946Z,100800
2023-05-10T09:30:00.789Z,100810
2023-05-10T09:35:01.122Z,100800
2023-05-10T09:40:01.029Z,100800
2023-05-10T09:45:00.697Z,100810
2023-05-10T09:50:01.296Z,100800
2023-05-10T09:55:00.619Z,100820
2023-05-10T10:00:00.780Z,100830
2023-05-10T10:05:01.209Z,100820
2023-05-10T10:10:00.888Z,100830
2023-05-10T10:15:00.752Z,100820
2023-05-10T10:20:00.847Z,100810
2023-05-10T10:25:01.187Z,100830
2023-05-10T10:30:00.871Z,100840
2023-05-10T10:35:00.610Z,100830
2023-05-10T10:40:00.791Z,100840
2023-05-10T10:45:00.988Z,100830
2023-05-10T10:50:00.916Z,100820
2023-05-10T10:55:01.449Z,100840
2023-05-10T11:00:01.161Z,100850
2023-05-10T11:05:00.753Z,100830
2023-05-10T11:10:00.751Z,100830
2023-05-10T11:15:01.151Z,100870
2023-05-10T11:20:00.647Z,100860
2023-05-10T11:25:00.600Z,100860
2023-05-10T11:30:02.595Z,100850
2023-05-10T11:35:01.252Z,100840
2023-05-10T11:40:00.793Z,100870
2023-05-10T11:45:00.512Z,100860
2023-05-10T11:50:02.581Z,100850
2023-05-10T11:55:00.861Z,100850
2023-05-10T12:00:00.609Z,100860
2023-05-10T12:05:01.738Z,100860
2023-05-10T12:10:01.218Z,100850
2023-05-10T12:15:00.940Z,100880
2023-05-10T12:20:00.877Z,100830
2023-05-10T12:25:00.676Z,100870
2023-05-10T12:30:01.129Z,100870
2023-05-10T12:35:00.877Z,100880
2023-05-10T12:40:01.026Z,100880
2023-05-10T12:45:01.439Z,100900
2023-05-10T12:50:00.486Z,100890
2023-05-10T12:55:00.983Z,100890
2023-05-10T13:00:00.650Z,100880
2023-05-10T13:05:01.208Z,100890
2023-05-10T13:10:00.565Z,100900
2023-05-10T13:15:00.879Z,100890
2023-05-10T13:20:00.672Z,100890
2023-05-10T13:25:00.615Z,100900
2023-05-10T13:30:01.058Z,100890
2023-05-10T13:35:00.857Z,100900
2023-05-10T13:40:00.961Z,100880
2023-05-10T13:45:00.782Z,100890
2023-05-10T13:50:00.927Z,100890
2023-05-10T13:55:00.637Z,100910
2023-05-10T14:00:00.589Z,100900
2023-05-10T14:05:00.841Z,100900
2023-05-10T14:10:00.943Z,100910
2023-05-10T14:15:00.858Z,100900
2023-05-10T14:20:00.785Z,100880
2023-05-10T14:25:01.170Z,100880
2023-05-10T14:30:01.262Z,100880
2023-05-10T14:35:01.271Z,100900
2023-05-10T14:40:00.788Z,100910
2023-05-10T14:45:00.517Z,100890
2023-05-10T14:50:00.683Z,100890
2023-05-10T14:55:00.705Z,100880
2023-05-10T15:00:00.802Z,100900
2023-05-10T15:05:00.710Z,100900
2023-05-10T15:10:00.642Z,100890
2023-05-10T15:15:01.187Z,100890
2023-05-10T15:20:01.435Z,100900
2023-05-10T15:25:00.663Z,100920
2023-05-10T15:30:00.992Z,100910
2023-05-10T15:35:01.656Z,100920
2023-05-10T15:40:00.840Z,100930
2023-05-10T15:45:00.607Z,100940
2023-05-10T15:50:00.756Z,100930
2023-05-10T15:55:00.851Z,100950
2023-05-10T16:00:00.962Z,100940
2023-05-10T16:05:00.838Z,100930
2023-05-10T16:10:01.307Z,100940
2023-05-10T16:15:00.819Z,100960
2023-05-10T16:20:00.851Z,100960
2023-05-10T16:25:01.326Z,100970
2023-05-10T16:30:00.750Z,100950
2023-05-10T16:35:01.412Z,100960
2023-05-10T16:40:01.529Z,100960
2023-05-10T16:45:01.043Z,100970
2023-05-10T16:50:00.653Z,100980
2023-05-10T16:55:00.826Z,101000
2023-05-10T17:00:00.956Z,101000
2023-05-10T17:05:01.759Z,100990
2023-05-10T17:10:01.242Z,101010
2023-05-10T17:15:01.448Z,101000
2023-05-10T17:20:01.106Z,101000
2023-05-10T17:25:00.918Z,101010
2023-05-10T17:30:00.953Z,101010
2023-05-10T17:35:00.883Z,100990
2023-05-10T17:40:02.411Z,101000
2023-05-10T17:45:01.131Z,101020
2023-05-10T17:50:00.636Z,101010
2023-05-10T17:55:01.013Z,101020
2023-05-10T18:00:00.692Z,101010
2023-05-10T18:05:00.775Z,101030
2023-05-10T18:10:00.586Z,101020
2023-05-10T18:15:01.045Z,101030
2023-05-10T18:20:00.749Z,101030
2023-05-10T18:25:00.745Z,101030
2023-05-10T18:30:01.035Z,101020
2023-05-10T18:35:01.037Z,101040
2023-05-10T18:40:01.017Z,101040
2023-05-10T18:45:01.568Z,101030
2023-05-10T18:50:00.602Z,101060
2023-05-10T18:55:00.555Z,101050
2023-05-10T19:00:00.532Z,101030
2023-05-10T19:05:01.834Z,101070
2023-05-10T19:10:00.644Z,101050
2023-05-10T19:15:01.454Z,101070
2023-05-10T19:20:00.658Z,101080
2023-05-10T19:25:00.523Z,101060
2023-05-10T19:30:00.673Z,101060
2023-05-10T19:35:00.702Z,101060
2023-05-10T19:40:00.787Z,101070
2023-05-10T19:45:02.237Z,101080
2023-05-10T19:50:00.945Z,101090
2023-05-10T19:55:00.812Z,101070
2023-05-10T20:00:00.892Z,101080
2023-05-10T20:05:00.573Z,101070
2023-05-10T20:10:01.305Z,101110
2023-05-10T20:15:00.896Z,101100
2023-05-10T20:20:00.630Z,101100
2023-05-10T20:25:00.729Z,101100
2023-05-10T20:30:00.563Z,101120
2023-05-10T20:35:01.114Z,101100
2023-05-10T20:40:00.579Z,101110
2023-05-10T20:45:00.592Z,101110
2023-05-10T20:50:00.917Z,101110
2023-05-10T20:55:00.512Z,101110
2023-05-10T21:00:00.987Z,101100
2023-05-10T21:05:01.529Z,101100
2023-05-10T21:10:00.643Z,101110
2023-05-10T21:15:00.897Z,101120
2023-05-10T21:20:00.830Z,101120
2023-05-10T21:25:01.020Z,101130
2023-05-10T21:30:01.070Z,101130
2023-05-10T21:35:01.189Z,101100
2023-05-10T21:40:00.990Z,101130
2023-05-10T21:45:01.463Z,101080
2023-05-10T21:50:01.113Z,101110
2023-05-10T21:55:00.541Z,101080
2023-05-10T22:00:00.646Z,101120
2023-05-10T22:05:00.864Z,101100
2023-05-10T22:10:01.860Z,101120
2023-05-10T22:15:10.217Z,101140
2023-05-10T22:20:00.524Z,101120
2023-05-10T22:25:01.424Z,101130
2023-05-10T22:30:00.749Z,101130
2023-05-10T22:35:01.526Z,101130
2023-05-10T22:40:00.607Z,101140
2023-05-10T22:45:01.637Z,101130
2023-05-10T22:50:00.703Z,101120
2023-05-10T22:55:00.886Z,101110
2023-05-10T23:00:01.012Z,101120
2023-05-10T23:05:00.719Z,101090
2023-05-10T23:10:00.865Z,101120
2023-05-10T23:15:00.862Z,101140
2023-05-10T23:20:00.783Z,101130
2023-05-10T23:25:00.984Z,101160
2023-05-10T23:30:00.744Z,101130
2023-05-10T23:35:00.963Z,101130
2023-05-10T23:40:01.035Z,101150
2023-05-10T23:45:01.198Z,101140
2023-05-10T23:50:00.881Z,101140
2023-05-10T23:55:00.937Z,101120
